Terminal Aerodrome Forecast
Issued by NWS

Home | Current Version | Previous Version | Text Only | Print | Product List | Glossary On
Versions: 1 2 3 4 5 6 7 8 9 10 11 12 13 14 15 16 17 18 19 20 21 22 23 24 25 26 27 28 29 30
000
FTUS45 KGJT 010538
TAFRIL
TAF
KRIL 010538Z 0106/0206 18003KT P6SM VCSH SCT025 OVC050
      TEMPO 0106/0108 5SM -SN BR SCT015 OVC025
     FM011400 25003KT P6SM VCSH SCT015 OVC040
     FM020200 11005KT 6SM -SN BR SCT015 BKN025=

USA.gov is the U.S. government's official web portal to all federal, state and local government web resources and services.